createdAt,value
2019-05-19T00:09:58.050Z,955.3
2019-05-19T00:20:01.482Z,955.2
2019-05-19T00:30:05.100Z,955.6
2019-05-19T00:40:08.551Z,955.9
2019-05-19T00:50:12.000Z,955.8
2019-05-19T01:00:15.439Z,955.6
2019-05-19T01:10:18.895Z,955.2
2019-05-19T01:20:22.355Z,955.2
2019-05-19T01:30:25.815Z,955.2
2019-05-19T01:40:29.260Z,955.1
2019-05-19T01:50:32.727Z,955.3
2019-05-19T02:00:36.214Z,955.3
2019-05-19T02:10:39.697Z,955.5
2019-05-19T02:20:43.170Z,955.3
2019-05-19T02:30:46.642Z,955.5
2019-05-19T02:40:50.091Z,948.9
2019-05-19T02:50:53.665Z,948.2
2019-05-19T03:00:57.126Z,948.3
2019-05-19T03:11:00.602Z,948.4
2019-05-19T03:21:12.499Z,948.2
2019-05-19T03:31:16.022Z,948.5
2019-05-19T03:41:19.499Z,948.5
2019-05-19T03:51:32.341Z,948.4
2019-05-19T04:01:35.783Z,948.4
2019-05-19T04:11:39.344Z,948.7
2019-05-19T04:21:50.040Z,948.6
2019-05-19T04:31:53.475Z,948.3
2019-05-19T04:41:56.972Z,948.5
2019-05-19T04:52:08.026Z,948.3
2019-05-19T05:02:11.521Z,948.3
2019-05-19T05:12:14.966Z,955.4
2019-05-19T05:22:22.859Z,955.2
2019-05-19T05:32:26.357Z,955.5
2019-05-19T05:42:32.412Z,955.4
2019-05-19T05:52:39.502Z,955.2
2019-05-19T06:02:42.971Z,954.6
2019-05-19T06:12:46.405Z,954.6
2019-05-19T06:22:57.588Z,954.8
2019-05-19T06:33:01.049Z,954.4
2019-05-19T06:43:04.523Z,954.5
2019-05-19T06:53:15.201Z,954.2
2019-05-19T07:03:18.646Z,953.4
2019-05-19T07:13:22.107Z,952.3
2019-05-19T07:23:29.236Z,953.3
2019-05-19T07:33:32.726Z,953.1
2019-05-19T07:43:36.171Z,952
2019-05-19T07:53:43.718Z,952.1
2019-05-19T08:03:47.160Z,952.1
2019-05-19T08:13:50.620Z,952
2019-05-19T08:24:01.632Z,951.7
2019-05-19T08:34:05.235Z,952
2019-05-19T08:44:08.692Z,952
2019-05-19T08:54:19.287Z,950.9
2019-05-19T09:04:22.747Z,949.9
2019-05-19T09:14:27.202Z,949.3
2019-05-19T09:34:38.849Z,948.2
2019-05-19T09:44:42.287Z,953.4
2019-05-19T09:54:46.479Z,953
2019-05-19T10:04:49.934Z,952.7
2019-05-19T10:14:53.378Z,952.1
2019-05-19T10:25:23.683Z,952.5
2019-05-19T10:35:27.135Z,952.4
2019-05-19T10:45:30.583Z,953.3
2019-05-19T10:55:37.428Z,954.4
2019-05-19T11:05:40.876Z,948.6
2019-05-19T11:15:44.325Z,949.1
2019-05-19T11:25:52.247Z,948.2
2019-05-19T11:35:55.646Z,947.5
2019-05-19T11:45:59.111Z,954.4
2019-05-19T11:56:11.891Z,951.9
2019-05-19T12:06:15.369Z,951.6
2019-05-19T12:16:18.815Z,952.5
2019-05-19T12:26:24.157Z,952
2019-05-19T12:36:27.669Z,953.6
2019-05-19T12:46:31.134Z,953.2
2019-05-19T12:56:40.603Z,953.2
2019-05-19T13:06:44.071Z,952.1
2019-05-19T13:16:47.579Z,951.7
2019-05-19T13:26:57.369Z,951.4
2019-05-19T13:37:00.874Z,951.5
2019-05-19T13:47:04.311Z,952
2019-05-19T13:57:13.186Z,951.5
2019-05-19T14:07:16.671Z,950.7
2019-05-19T14:17:20.153Z,951.3
2019-05-19T14:27:31.313Z,952.1
2019-05-19T14:37:34.776Z,952.4
2019-05-19T14:47:38.208Z,952.4
2019-05-19T14:57:46.039Z,952
2019-05-19T15:07:49.530Z,951.9
2019-05-19T15:17:52.988Z,951.8
2019-05-19T15:28:05.860Z,952.3
2019-05-19T15:38:09.321Z,952.4
2019-05-19T15:48:12.774Z,952.4
2019-05-19T15:58:17.634Z,952.6
2019-05-19T16:08:21.082Z,952.6
2019-05-19T16:18:24.544Z,952.7
2019-05-19T16:28:31.472Z,952.6
2019-05-19T16:38:34.943Z,952.8
2019-05-19T16:48:38.575Z,953.6
2019-05-19T16:58:46.199Z,947.7
2019-05-19T17:08:49.659Z,948.3
2019-05-19T17:18:53.106Z,948.1
2019-05-19T17:29:01.445Z,948.2
2019-05-19T17:39:04.963Z,949
2019-05-19T17:49:08.426Z,949.2
2019-05-19T17:59:17.209Z,949.3
2019-05-19T18:09:20.686Z,949.7
2019-05-19T18:19:24.168Z,949.6
2019-05-19T18:29:32.116Z,949.9
2019-05-19T18:39:35.554Z,950.4
2019-05-19T18:49:39.266Z,951
2019-05-19T18:59:48.254Z,950.8
2019-05-19T19:09:51.703Z,951.3
2019-05-19T19:19:55.192Z,951.9
2019-05-19T19:30:04.564Z,952
2019-05-19T19:40:08.099Z,952.3
2019-05-19T19:50:11.547Z,952.4
2019-05-19T20:00:19.220Z,952.7
2019-05-19T20:10:22.675Z,952.7
2019-05-19T20:20:26.103Z,953.1
2019-05-19T20:30:37.286Z,953.4
2019-05-19T20:40:40.738Z,953.6
2019-05-19T20:50:44.163Z,953.8
2019-05-19T21:00:52.236Z,953.7
2019-05-19T21:10:55.700Z,953.8
2019-05-19T21:20:59.238Z,953.7
2019-05-19T21:31:06.822Z,953.6
2019-05-19T21:41:10.272Z,953.6
2019-05-19T21:51:13.686Z,953.6
2019-05-19T22:01:24.113Z,953.6
2019-05-19T22:11:27.591Z,953.7
2019-05-19T22:21:31.044Z,953.7
2019-05-19T22:31:37.607Z,953.9
2019-05-19T22:41:41.066Z,953.8
2019-05-19T22:51:44.547Z,954.1
2019-05-19T23:01:52.515Z,954.1
2019-05-19T23:11:55.945Z,954
2019-05-19T23:21:59.415Z,954.1
2019-05-19T23:32:07.878Z,954.2
2019-05-19T23:42:11.341Z,954.4
2019-05-19T23:52:14.873Z,954.3
